createdAt,value
2019-05-07T00:02:29.252Z,7.00
2019-05-07T00:05:02.510Z,7.00
2019-05-07T00:07:32.395Z,7.00
2019-05-07T00:10:03.425Z,6.90
2019-05-07T00:12:34.246Z,6.90
2019-05-07T00:15:05.515Z,6.90
2019-05-07T00:17:36.244Z,6.80
2019-05-07T00:20:07.369Z,6.80
2019-05-07T00:22:38.707Z,6.80
2019-05-07T00:25:12.289Z,6.80
2019-05-07T00:27:42.784Z,6.80
2019-05-07T00:30:13.812Z,6.80
2019-05-07T00:32:45.876Z,6.90
2019-05-07T00:35:18.996Z,6.80
2019-05-07T00:37:55.455Z,6.80
2019-05-07T00:40:48.042Z,6.80
2019-05-07T00:43:22.686Z,6.80
2019-05-07T00:46:02.796Z,6.80
2019-05-07T00:48:33.639Z,6.70
2019-05-07T00:51:22.689Z,6.70
2019-05-07T01:06:14.385Z,6.60
2019-05-07T01:08:45.187Z,6.60
2019-05-07T01:11:16.056Z,6.60
2019-05-07T01:13:47.786Z,6.60
2019-05-07T01:16:18.661Z,6.60
2019-05-07T01:18:49.395Z,6.60
2019-05-07T01:21:20.086Z,6.50
2019-05-07T01:23:52.318Z,6.40
2019-05-07T01:26:23.109Z,6.40
2019-05-07T01:28:59.606Z,6.40
2019-05-07T01:31:35.501Z,6.40
2019-05-07T01:34:23.894Z,6.40
2019-05-07T01:36:54.629Z,6.40
2019-05-07T01:39:25.333Z,6.30
2019-05-07T01:41:56.239Z,6.30
2019-05-07T01:44:27.014Z,6.40
2019-05-07T01:46:57.744Z,6.30
2019-05-07T01:49:28.485Z,6.40
2019-05-07T01:51:59.290Z,6.40
2019-05-07T01:54:30.155Z,6.40
2019-05-07T01:57:02.820Z,6.40
2019-05-07T01:59:33.443Z,6.40
2019-05-07T02:02:12.123Z,6.30
2019-05-07T02:05:08.220Z,6.30
2019-05-07T02:07:43.567Z,6.30
2019-05-07T02:10:31.944Z,6.30
2019-05-07T02:13:02.403Z,6.30
2019-05-07T02:15:33.447Z,6.10
2019-05-07T02:18:04.420Z,6.10
2019-05-07T02:20:35.683Z,6.10
2019-05-07T02:23:06.438Z,6.00
2019-05-07T02:25:37.169Z,6.10
2019-05-07T02:28:08.242Z,6.10
2019-05-07T02:30:39.393Z,6.10
2019-05-07T02:33:13.498Z,6.20
2019-05-07T02:35:43.871Z,6.10
2019-05-07T02:38:22.823Z,6.10
2019-05-07T02:40:56.459Z,6.00
2019-05-07T02:43:27.262Z,6.00
2019-05-07T02:46:22.366Z,6.10
2019-05-07T02:49:07.633Z,6.10
2019-05-07T02:51:44.008Z,6.10
2019-05-07T02:54:24.192Z,6.10
2019-05-07T02:56:55.240Z,6.10
2019-05-07T02:59:25.953Z,5.90
2019-05-07T03:01:56.801Z,6.00
2019-05-07T03:04:27.702Z,5.90
2019-05-07T03:06:58.764Z,6.00
2019-05-07T03:09:29.577Z,5.90
2019-05-07T03:12:03.734Z,6.00
2019-05-07T03:14:33.299Z,6.00
2019-05-07T03:17:04.297Z,5.90
2019-05-07T03:19:37.030Z,5.90
2019-05-07T03:22:07.845Z,5.90
2019-05-07T03:24:53.049Z,5.90
2019-05-07T03:27:23.870Z,5.90
2019-05-07T03:30:09.071Z,5.90
2019-05-07T03:32:47.688Z,5.90
2019-05-07T03:35:37.024Z,5.90
2019-05-07T03:38:06.832Z,5.90
2019-05-07T03:40:37.664Z,5.80
2019-05-07T03:43:08.640Z,5.90
2019-05-07T03:46:04.311Z,5.80
2019-05-07T03:48:35.800Z,5.80
2019-05-07T03:51:06.587Z,5.70
2019-05-07T03:53:37.443Z,5.70
2019-05-07T03:56:08.264Z,5.70
2019-05-07T03:58:43.354Z,5.70
2019-05-07T04:01:14.210Z,5.80
2019-05-07T04:03:45.516Z,5.70
2019-05-07T04:06:16.310Z,5.70
2019-05-07T04:08:47.004Z,5.70
2019-05-07T04:11:17.795Z,5.70
2019-05-07T04:13:48.717Z,5.70
2019-05-07T04:16:19.398Z,5.70
2019-05-07T04:18:52.876Z,5.80
2019-05-07T04:21:23.326Z,5.80
2019-05-07T04:24:13.585Z,5.90
2019-05-07T04:26:48.427Z,5.90
2019-05-07T04:29:19.320Z,5.90
2019-05-07T04:31:53.058Z,6.00
2019-05-07T04:34:44.529Z,6.00
2019-05-07T04:37:14.912Z,6.00
2019-05-07T04:39:53.822Z,6.00
2019-05-07T04:42:25.059Z,6.10
2019-05-07T04:44:55.783Z,6.10
2019-05-07T04:47:38.678Z,6.10
2019-05-07T04:49:58.827Z,6.20
2019-05-07T04:52:34.030Z,6.30
2019-05-07T04:55:05.329Z,6.40
2019-05-07T04:57:37.240Z,6.40
2019-05-07T05:00:09.561Z,6.30
2019-05-07T05:03:08.438Z,6.30
2019-05-07T05:05:39.389Z,6.30
2019-05-07T05:08:10.113Z,6.20
2019-05-07T05:10:43.291Z,6.20
2019-05-07T05:13:16.062Z,6.20
2019-05-07T05:15:47.144Z,6.20
2019-05-07T05:18:17.806Z,6.20
2019-05-07T05:21:03.078Z,6.30
2019-05-07T05:23:55.700Z,6.30
2019-05-07T05:26:26.410Z,6.30
2019-05-07T05:28:57.261Z,6.30
2019-05-07T05:31:28.343Z,6.30
2019-05-07T05:33:59.072Z,6.30
2019-05-07T05:36:30.005Z,6.40
2019-05-07T05:39:02.480Z,6.40
2019-05-07T05:41:37.501Z,6.40
2019-05-07T05:44:11.917Z,6.50
2019-05-07T05:46:46.223Z,6.60
2019-05-07T05:49:17.484Z,6.70
2019-05-07T05:51:58.431Z,6.80
2019-05-07T05:54:35.612Z,6.80
2019-05-07T05:57:17.488Z,6.90
2019-05-07T06:00:21.929Z,6.90
2019-05-07T06:03:11.956Z,6.90
2019-05-07T06:05:58.352Z,7.00
2019-05-07T06:08:35.141Z,7.00
2019-05-07T06:11:17.597Z,7.00
2019-05-07T06:14:19.230Z,6.90
2019-05-07T06:17:02.080Z,7.10
2019-05-07T06:19:43.784Z,7.20
2019-05-07T06:22:24.831Z,7.30
2019-05-07T06:24:59.399Z,7.50
2019-05-07T06:27:32.398Z,7.50
2019-05-07T06:30:04.951Z,7.30
2019-05-07T06:32:35.665Z,7.40
2019-05-07T06:35:06.719Z,7.50
2019-05-07T06:37:37.505Z,7.50
2019-05-07T06:40:29.493Z,7.50
2019-05-07T06:43:13.237Z,7.70
2019-05-07T06:45:48.321Z,7.90
2019-05-07T06:48:33.101Z,8.20
2019-05-07T06:50:57.470Z,8.50
2019-05-07T06:53:29.717Z,8.60
2019-05-07T06:56:02.899Z,8.90
2019-05-07T06:58:39.266Z,9.00
2019-05-07T07:01:22.556Z,8.90
2019-05-07T07:04:06.249Z,8.70
2019-05-07T07:06:57.751Z,8.60
2019-05-07T07:09:36.981Z,8.70
2019-05-07T07:12:12.924Z,8.70
2019-05-07T07:14:44.053Z,8.80
2019-05-07T07:17:14.859Z,9.00
2019-05-07T07:19:46.023Z,9.30
2019-05-07T07:22:17.155Z,9.40
2019-05-07T07:24:47.973Z,9.20
2019-05-07T07:27:19.096Z,9.00
2019-05-07T07:29:56.565Z,9.10
2019-05-07T07:32:33.920Z,9.40
2019-05-07T07:35:06.588Z,9.70
2019-05-07T07:37:42.826Z,10.00
2019-05-07T07:40:52.750Z,9.90
2019-05-07T07:43:23.445Z,9.70
2019-05-07T07:45:54.112Z,10.00
2019-05-07T07:48:27.958Z,10.90
2019-05-07T07:50:57.611Z,10.30
2019-05-07T07:53:32.014Z,10.10
2019-05-07T07:56:22.873Z,10.60
2019-05-07T07:59:01.998Z,11.50
2019-05-07T08:01:39.337Z,11.20
2019-05-07T08:04:12.256Z,10.70
2019-05-07T08:06:43.214Z,10.20
2019-05-07T08:09:14.414Z,10.00
2019-05-07T08:11:45.472Z,10.00
2019-05-07T08:14:16.228Z,10.10
2019-05-07T08:16:47.086Z,10.30
2019-05-07T08:19:22.002Z,10.40
2019-05-07T08:21:52.142Z,10.00
2019-05-07T08:24:23.398Z,9.70
2019-05-07T08:26:54.263Z,10.00
2019-05-07T08:29:25.014Z,10.70
2019-05-07T08:32:14.165Z,10.40
2019-05-07T08:34:59.186Z,10.00
2019-05-07T08:37:32.119Z,9.70
2019-05-07T08:40:03.224Z,9.70
2019-05-07T08:42:33.972Z,10.10
2019-05-07T08:45:25.248Z,10.20
2019-05-07T08:47:58.143Z,10.00
2019-05-07T08:50:29.044Z,10.20
2019-05-07T08:52:59.917Z,10.50
2019-05-07T08:55:32.208Z,10.90
2019-05-07T08:58:04.723Z,11.00
2019-05-07T09:00:35.958Z,11.30
2019-05-07T09:03:19.288Z,11.40
2019-05-07T09:05:39.435Z,11.70
2019-05-07T09:08:12.484Z,12.00
2019-05-07T09:10:42.825Z,12.10
2019-05-07T09:13:13.699Z,12.60
2019-05-07T09:15:44.896Z,13.00
2019-05-07T09:18:15.629Z,13.00
2019-05-07T09:20:46.504Z,13.20
2019-05-07T09:23:17.495Z,13.50
2019-05-07T09:25:48.716Z,12.90
2019-05-07T09:28:21.796Z,13.10
2019-05-07T09:30:58.955Z,13.50
2019-05-07T09:33:39.067Z,13.50
2019-05-07T09:36:17.010Z,12.90
2019-05-07T09:38:56.861Z,12.90
2019-05-07T09:41:29.244Z,12.20
2019-05-07T09:44:00.075Z,12.10
2019-05-07T09:46:32.602Z,12.60
2019-05-07T09:49:03.658Z,13.10
2019-05-07T09:51:34.628Z,13.60
2019-05-07T09:54:05.711Z,13.80
2019-05-07T09:56:36.746Z,14.00
2019-05-07T09:59:07.698Z,13.70
2019-05-07T10:01:39.205Z,14.20
2019-05-07T10:04:09.991Z,14.70
2019-05-07T10:06:42.469Z,14.30
2019-05-07T10:09:13.405Z,14.40
2019-05-07T10:11:53.929Z,14.60
2019-05-07T10:14:24.826Z,14.40
2019-05-07T10:17:22.408Z,14.30
2019-05-07T10:19:53.818Z,14.30
2019-05-07T10:22:25.230Z,15.00
2019-05-07T10:24:56.720Z,15.30
2019-05-07T10:27:27.643Z,15.70
2019-05-07T10:29:58.993Z,16.10
2019-05-07T10:32:32.047Z,15.70
2019-05-07T10:35:03.236Z,15.50
2019-05-07T10:37:34.388Z,15.30
2019-05-07T10:40:06.052Z,15.80
2019-05-07T10:42:36.898Z,15.00
2019-05-07T10:45:23.248Z,14.10
2019-05-07T10:48:07.150Z,13.40
2019-05-07T10:50:39.638Z,12.90
2019-05-07T10:53:12.542Z,12.70
2019-05-07T10:55:45.557Z,12.60
2019-05-07T10:58:15.952Z,12.90
2019-05-07T11:00:47.150Z,13.30
2019-05-07T11:03:21.758Z,14.30
2019-05-07T11:05:52.137Z,14.80
2019-05-07T11:08:25.667Z,15.30
2019-05-07T11:10:55.868Z,15.40
2019-05-07T11:13:27.713Z,14.80
2019-05-07T11:16:04.713Z,15.70
2019-05-07T11:18:54.496Z,16.20
2019-05-07T11:21:33.346Z,14.90
2019-05-07T11:24:04.190Z,15.40
2019-05-07T11:26:35.001Z,16.10
2019-05-07T11:29:05.825Z,14.60
2019-05-07T11:31:37.004Z,14.10
2019-05-07T11:34:07.717Z,14.10
2019-05-07T11:36:38.647Z,13.90
2019-05-07T11:39:12.064Z,13.60
2019-05-07T11:42:02.268Z,13.50
2019-05-07T11:44:32.685Z,13.90
2019-05-07T11:47:28.672Z,13.90
2019-05-07T11:50:22.634Z,13.70
2019-05-07T11:52:57.661Z,13.50
2019-05-07T11:55:28.450Z,13.60
2019-05-07T11:57:59.353Z,14.40
2019-05-07T12:00:34.698Z,14.50
2019-05-07T12:03:06.435Z,14.10
2019-05-07T12:05:37.263Z,14.10
2019-05-07T12:08:08.235Z,14.60
2019-05-07T12:10:39.044Z,15.20
2019-05-07T12:13:12.828Z,14.60
2019-05-07T12:15:43.641Z,14.30
2019-05-07T12:18:14.894Z,14.10
2019-05-07T12:20:45.951Z,13.80
2019-05-07T12:23:16.844Z,14.10
2019-05-07T12:25:47.885Z,14.80
2019-05-07T12:28:18.688Z,14.60
2019-05-07T12:31:22.423Z,14.60
2019-05-07T12:34:27.368Z,15.10
2019-05-07T12:36:58.182Z,15.50
2019-05-07T12:39:28.945Z,15.20
2019-05-07T12:41:59.893Z,14.40
2019-05-07T12:44:32.004Z,13.90
2019-05-07T12:47:06.297Z,13.80
2019-05-07T12:49:37.157Z,13.90
2019-05-07T12:52:13.612Z,14.10
2019-05-07T12:55:08.047Z,14.00
2019-05-07T12:57:39.049Z,13.50
2019-05-07T13:00:32.399Z,13.40
2019-05-07T13:03:17.352Z,13.30
2019-05-07T13:05:48.763Z,13.20
2019-05-07T13:08:19.608Z,13.60
2019-05-07T13:10:51.880Z,14.20
2019-05-07T13:13:23.788Z,14.40
2019-05-07T13:15:54.636Z,14.40
2019-05-07T13:18:25.504Z,14.20
2019-05-07T13:20:56.701Z,14.00
2019-05-07T13:23:27.818Z,14.00
2019-05-07T13:25:58.571Z,13.80
2019-05-07T13:28:29.390Z,13.90
2019-05-07T13:31:02.173Z,13.90
2019-05-07T13:33:35.393Z,13.70
2019-05-07T13:36:06.268Z,13.70
2019-05-07T13:38:48.195Z,13.90
2019-05-07T13:41:53.610Z,14.10
2019-05-07T13:44:48.232Z,14.40
2019-05-07T13:47:44.485Z,14.20
2019-05-07T13:50:15.373Z,13.80
2019-05-07T13:52:46.725Z,14.00
2019-05-07T13:55:18.957Z,13.90
2019-05-07T13:57:49.976Z,14.30
2019-05-07T14:00:28.415Z,14.10
2019-05-07T14:02:59.268Z,14.30
2019-05-07T14:05:32.227Z,14.40
2019-05-07T14:08:04.560Z,14.20
2019-05-07T14:10:35.644Z,13.90
2019-05-07T14:13:11.161Z,13.20
2019-05-07T14:15:42.610Z,13.40
2019-05-07T14:18:13.347Z,13.80
2019-05-07T14:20:44.115Z,13.90
2019-05-07T14:23:14.818Z,13.40
2019-05-07T14:25:45.575Z,13.30
2019-05-07T14:28:16.615Z,13.30
2019-05-07T14:30:47.369Z,13.40
2019-05-07T14:33:27.322Z,13.10
2019-05-07T14:36:02.539Z,13.10
2019-05-07T14:38:38.374Z,13.30
2019-05-07T14:41:09.326Z,13.20
2019-05-07T14:43:45.671Z,13.10
2019-05-07T14:46:16.472Z,13.30
2019-05-07T14:48:47.507Z,12.90
2019-05-07T14:51:18.646Z,12.90
2019-05-07T14:53:49.772Z,13.20
2019-05-07T14:56:22.997Z,13.50
2019-05-07T14:58:53.106Z,13.70
2019-05-07T15:01:24.008Z,13.90
2019-05-07T15:03:54.964Z,14.00
2019-05-07T15:06:25.889Z,13.90
2019-05-07T15:08:56.996Z,13.90
2019-05-07T15:11:28.128Z,13.70
2019-05-07T15:13:59.373Z,13.50
2019-05-07T15:16:32.030Z,13.40
2019-05-07T15:19:03.164Z,13.30
2019-05-07T15:21:34.064Z,13.20
2019-05-07T15:24:05.125Z,13.30
2019-05-07T15:26:36.345Z,13.40
2019-05-07T15:29:12.115Z,13.60
2019-05-07T15:32:15.152Z,13.50
2019-05-07T15:34:46.302Z,13.60
2019-05-07T15:37:17.387Z,13.70
2019-05-07T15:39:48.180Z,13.70
2019-05-07T15:42:19.259Z,13.60
2019-05-07T15:44:52.633Z,13.60
2019-05-07T15:47:31.733Z,13.50
2019-05-07T15:50:02.745Z,13.40
2019-05-07T15:52:59.327Z,13.40
2019-05-07T15:55:30.371Z,13.10
2019-05-07T15:58:02.772Z,12.90
2019-05-07T16:00:36.158Z,12.80
2019-05-07T16:03:12.150Z,12.60
2019-05-07T16:05:43.910Z,12.60
2019-05-07T16:08:16.157Z,12.70
2019-05-07T16:10:47.168Z,12.60
2019-05-07T16:13:22.920Z,12.60
2019-05-07T16:15:54.104Z,12.90
2019-05-07T16:18:29.850Z,13.00
2019-05-07T16:21:02.100Z,13.30
2019-05-07T16:23:33.223Z,13.00
2019-05-07T16:26:05.290Z,12.60
2019-05-07T16:28:37.106Z,12.70
2019-05-07T16:31:08.032Z,12.60
2019-05-07T16:33:39.079Z,12.80
2019-05-07T16:36:10.208Z,12.80
2019-05-07T16:38:41.968Z,12.70
2019-05-07T16:41:13.551Z,12.70
2019-05-07T16:43:44.537Z,12.40
2019-05-07T16:46:15.722Z,12.50
2019-05-07T16:48:46.627Z,12.40
2019-05-07T16:51:17.429Z,12.20
2019-05-07T16:53:48.319Z,12.10
2019-05-07T16:56:19.595Z,12.10
2019-05-07T16:58:56.567Z,12.10
2019-05-07T17:01:27.701Z,12.30
2019-05-07T17:03:59.489Z,12.30
2019-05-07T17:06:32.107Z,12.10
2019-05-07T17:09:13.637Z,12.20
2019-05-07T17:11:44.503Z,12.40
2019-05-07T17:14:15.568Z,12.50
2019-05-07T17:16:46.398Z,12.50
2019-05-07T17:19:17.471Z,12.60
2019-05-07T17:21:52.038Z,12.60
2019-05-07T17:24:22.941Z,12.60
2019-05-07T17:26:54.050Z,12.40
2019-05-07T17:29:25.088Z,12.00
2019-05-07T17:31:56.014Z,11.70
2019-05-07T17:34:27.925Z,11.70
2019-05-07T17:36:58.711Z,11.80
2019-05-07T17:39:29.521Z,11.70
2019-05-07T17:42:02.409Z,11.70
2019-05-07T17:44:33.905Z,11.90
2019-05-07T17:47:06.090Z,11.80
2019-05-07T17:49:37.279Z,11.80
2019-05-07T17:52:10.608Z,11.70
2019-05-07T17:54:42.363Z,11.60
2019-05-07T17:57:15.798Z,11.60
2019-05-07T17:59:46.324Z,11.50
2019-05-07T18:02:24.181Z,11.40
2019-05-07T18:04:54.962Z,11.30
2019-05-07T18:07:25.658Z,11.20
2019-05-07T18:09:56.484Z,11.00
2019-05-07T18:12:27.372Z,11.00
2019-05-07T18:14:58.663Z,10.90
2019-05-07T18:17:38.720Z,10.70
2019-05-07T18:20:09.658Z,10.60
2019-05-07T18:22:40.624Z,10.50
2019-05-07T18:25:13.179Z,10.30
2019-05-07T18:27:44.913Z,10.20
2019-05-07T18:30:15.947Z,10.10
2019-05-07T18:32:52.166Z,10.00
2019-05-07T18:35:23.208Z,9.90
2019-05-07T18:37:54.290Z,9.80
2019-05-07T18:40:25.271Z,9.80
2019-05-07T18:42:56.302Z,9.70
2019-05-07T18:45:27.254Z,9.70
2019-05-07T18:47:58.569Z,9.60
2019-05-07T18:50:29.627Z,9.50
2019-05-07T18:53:02.721Z,9.50
2019-05-07T18:55:33.374Z,9.40
2019-05-07T18:58:04.271Z,9.40
2019-05-07T19:00:38.844Z,9.40
2019-05-07T19:03:09.812Z,9.30
2019-05-07T19:05:42.396Z,9.20
2019-05-07T19:08:13.703Z,9.10
2019-05-07T19:10:44.628Z,9.00
2019-05-07T19:13:16.001Z,8.90
2019-05-07T19:15:47.394Z,8.90
2019-05-07T19:18:18.503Z,8.80
2019-05-07T19:20:49.392Z,8.70
2019-05-07T19:23:22.093Z,8.60
2019-05-07T19:25:52.892Z,8.60
2019-05-07T19:28:23.784Z,8.50
2019-05-07T19:30:55.549Z,8.50
2019-05-07T19:33:27.371Z,8.40
2019-05-07T19:35:59.490Z,8.40
2019-05-07T19:38:32.189Z,8.40
2019-05-07T19:41:02.631Z,8.40
2019-05-07T19:43:36.327Z,8.30
2019-05-07T19:46:06.503Z,8.20
2019-05-07T19:48:37.405Z,8.20
2019-05-07T19:51:12.046Z,8.10
2019-05-07T19:53:42.565Z,8.00
2019-05-07T19:56:21.923Z,7.70
2019-05-07T19:58:53.417Z,7.60
2019-05-07T20:01:35.946Z,7.60
2019-05-07T20:04:06.804Z,7.60
2019-05-07T20:06:37.918Z,7.60
2019-05-07T20:09:14.760Z,7.60
2019-05-07T20:11:48.551Z,7.60
2019-05-07T20:14:19.484Z,7.50
2019-05-07T20:16:50.253Z,7.10
2019-05-07T20:19:22.949Z,7.10
2019-05-07T20:21:53.889Z,7.10
2019-05-07T20:24:24.770Z,7.20
2019-05-07T20:26:55.638Z,7.30
2019-05-07T20:29:26.635Z,7.20
2019-05-07T20:31:57.829Z,7.20
2019-05-07T20:34:29.650Z,7.20
2019-05-07T20:37:02.071Z,7.10
2019-05-07T20:39:33.249Z,7.10
2019-05-07T20:42:04.440Z,7.00
2019-05-07T20:44:35.355Z,6.90
2019-05-07T20:47:06.457Z,6.80
2019-05-07T20:49:39.043Z,6.80
2019-05-07T20:52:10.166Z,6.70
2019-05-07T20:54:46.991Z,6.60
2019-05-07T20:57:23.910Z,6.60
2019-05-07T20:59:55.412Z,6.60
2019-05-07T21:02:26.552Z,6.50
2019-05-07T21:04:57.884Z,6.40
2019-05-07T21:07:29.294Z,6.30
2019-05-07T21:10:01.955Z,6.20
2019-05-07T21:12:34.029Z,6.20
2019-05-07T21:15:05.337Z,6.10
2019-05-07T21:17:36.385Z,6.10
2019-05-07T21:20:07.820Z,6.00
2019-05-07T21:22:38.805Z,5.90
2019-05-07T21:25:12.010Z,5.80
2019-05-07T21:27:43.212Z,5.80
2019-05-07T21:30:17.493Z,5.70
2019-05-07T21:32:46.903Z,5.70
2019-05-07T21:35:17.986Z,5.70
2019-05-07T21:37:49.074Z,5.60
2019-05-07T21:40:22.339Z,5.60
2019-05-07T21:42:52.934Z,5.50
2019-05-07T21:45:24.056Z,5.50
2019-05-07T21:47:54.867Z,5.40
2019-05-07T21:50:25.933Z,5.40
2019-05-07T21:53:02.811Z,5.30
2019-05-07T21:56:01.882Z,5.20
2019-05-07T21:58:32.863Z,5.10
2019-05-07T22:01:12.813Z,5.00
2019-05-07T22:03:48.305Z,5.00
2019-05-07T22:06:19.190Z,5.00
2019-05-07T22:08:52.530Z,4.80
2019-05-07T22:11:23.091Z,4.70
2019-05-07T22:13:54.904Z,4.80
2019-05-07T22:16:25.819Z,4.80
2019-05-07T22:18:57.045Z,4.80
2019-05-07T22:21:28.095Z,4.70
2019-05-07T22:23:59.867Z,4.70
2019-05-07T22:26:32.188Z,4.70
2019-05-07T22:29:03.367Z,4.70
2019-05-07T22:31:53.004Z,4.60
2019-05-07T22:34:34.633Z,4.60
2019-05-07T22:37:07.054Z,4.60
2019-05-07T22:39:45.623Z,4.50
2019-05-07T22:42:29.915Z,4.40
2019-05-07T22:45:02.780Z,4.40
2019-05-07T22:47:33.518Z,4.30
2019-05-07T22:50:05.216Z,4.30
2019-05-07T22:52:35.932Z,4.30
2019-05-07T22:55:06.961Z,4.20
2019-05-07T22:57:49.346Z,4.20
2019-05-07T23:00:26.737Z,4.20
2019-05-07T23:02:57.661Z,4.20
2019-05-07T23:05:28.775Z,4.10
2019-05-07T23:08:02.196Z,4.10
2019-05-07T23:10:33.426Z,4.10
2019-05-07T23:13:04.454Z,4.10
2019-05-07T23:15:35.635Z,4.00
2019-05-07T23:18:06.596Z,4.00
2019-05-07T23:20:38.282Z,3.90
2019-05-07T23:23:09.093Z,3.90
2019-05-07T23:25:39.953Z,3.90
2019-05-07T23:28:12.583Z,3.80
2019-05-07T23:30:44.268Z,3.80
2019-05-07T23:33:15.726Z,3.70
2019-05-07T23:35:47.584Z,3.70
2019-05-07T23:38:18.422Z,3.70
2019-05-07T23:41:12.684Z,3.60
2019-05-07T23:43:45.123Z,3.60
2019-05-07T23:46:15.896Z,3.60
2019-05-07T23:48:47.024Z,3.60
2019-05-07T23:51:17.931Z,3.60
2019-05-07T23:53:48.732Z,3.60
2019-05-07T23:56:19.602Z,3.50
2019-05-07T23:58:52.450Z,3.50
